createdAt,value
2019-03-06T00:01:49.372Z,89.70
2019-03-06T00:04:17.471Z,90.10
2019-03-06T00:06:45.734Z,90.40
2019-03-06T00:09:13.831Z,90.80
2019-03-06T00:11:42.065Z,91.20
2019-03-06T00:14:10.208Z,91.60
2019-03-06T00:16:38.153Z,91.40
2019-03-06T00:19:06.295Z,91.50
2019-03-06T00:21:34.353Z,91.60
2019-03-06T00:24:04.383Z,91.80
2019-03-06T00:26:33.378Z,92.00
2019-03-06T00:29:01.997Z,92.10
2019-03-06T00:31:30.103Z,92.20
2019-03-06T00:33:58.244Z,92.10
2019-03-06T00:36:28.624Z,92.10
2019-03-06T00:38:56.698Z,91.80
2019-03-06T00:41:29.118Z,92.00
2019-03-06T00:43:58.852Z,92.10
2019-03-06T00:46:26.814Z,91.50
2019-03-06T00:48:54.923Z,91.50
2019-03-06T00:51:23.273Z,91.00
2019-03-06T00:53:51.253Z,91.10
2019-03-06T00:56:21.347Z,91.40
2019-03-06T00:58:50.278Z,91.00
2019-03-06T01:01:18.330Z,91.00
2019-03-06T01:03:46.280Z,91.20
2019-03-06T01:06:15.003Z,91.30
2019-03-06T01:08:42.938Z,91.00
2019-03-06T01:11:10.883Z,91.20
2019-03-06T01:13:39.186Z,91.40
2019-03-06T01:16:07.620Z,91.50
2019-03-06T01:18:35.545Z,91.60
2019-03-06T01:21:03.704Z,91.70
2019-03-06T01:23:31.665Z,91.70
2019-03-06T01:26:00.474Z,91.90
2019-03-06T01:28:28.654Z,92.10
2019-03-06T01:30:56.643Z,91.70
2019-03-06T01:33:46.913Z,91.70
2019-03-06T01:36:34.518Z,91.90
2019-03-06T01:39:28.177Z,91.80
2019-03-06T01:42:07.567Z,91.90
2019-03-06T01:44:39.883Z,91.90
2019-03-06T01:47:08.397Z,91.80
2019-03-06T01:49:36.804Z,91.70
2019-03-06T01:52:04.816Z,91.30
2019-03-06T01:54:32.884Z,91.60
2019-03-06T01:57:00.918Z,91.80
2019-03-06T01:59:30.204Z,91.80
2019-03-06T02:01:58.354Z,91.80
2019-03-06T02:04:26.322Z,91.60
2019-03-06T02:06:54.220Z,91.50
2019-03-06T02:09:26.056Z,91.70
2019-03-06T02:11:54.231Z,91.70
2019-03-06T02:14:22.376Z,91.70
2019-03-06T02:16:50.425Z,91.70
2019-03-06T02:19:18.380Z,91.60
2019-03-06T02:21:46.314Z,91.20
2019-03-06T02:24:14.297Z,91.40
2019-03-06T02:26:42.867Z,91.60
2019-03-06T02:29:11.041Z,91.60
2019-03-06T02:31:40.083Z,91.90
2019-03-06T02:34:10.364Z,91.70
2019-03-06T02:36:40.869Z,91.60
2019-03-06T02:39:08.983Z,91.60
2019-03-06T02:41:38.048Z,91.80
2019-03-06T02:44:06.155Z,92.30
2019-03-06T02:46:34.148Z,92.70
2019-03-06T02:49:02.964Z,92.60
2019-03-06T02:51:32.635Z,92.70
2019-03-06T02:54:00.674Z,92.60
2019-03-06T02:56:28.835Z,92.30
2019-03-06T02:59:10.463Z,92.00
2019-03-06T03:02:01.035Z,91.80
2019-03-06T03:04:36.233Z,91.60
2019-03-06T03:07:07.336Z,91.30
2019-03-06T03:09:35.688Z,91.30
2019-03-06T03:12:03.745Z,91.20
2019-03-06T03:14:31.727Z,91.20
2019-03-06T03:16:59.805Z,91.30
2019-03-06T03:19:27.883Z,91.30
2019-03-06T03:21:55.792Z,91.30
2019-03-06T03:24:23.798Z,91.30
2019-03-06T03:26:51.806Z,91.50
2019-03-06T03:29:19.789Z,91.30
2019-03-06T03:31:47.778Z,91.60
2019-03-06T03:34:15.713Z,91.90
2019-03-06T03:36:44.125Z,91.40
2019-03-06T03:39:12.125Z,91.60
2019-03-06T03:41:40.100Z,91.50
2019-03-06T03:44:08.070Z,91.80
2019-03-06T03:46:36.064Z,92.00
2019-03-06T03:49:04.013Z,92.20
2019-03-06T03:51:32.290Z,92.60
2019-03-06T03:54:00.243Z,92.60
2019-03-06T03:56:28.168Z,92.50
2019-03-06T03:58:56.163Z,92.60
2019-03-06T04:01:24.202Z,93.00
2019-03-06T04:03:52.227Z,93.40
2019-03-06T04:06:20.205Z,93.10
2019-03-06T04:08:48.219Z,93.20
2019-03-06T04:11:16.275Z,93.40
2019-03-06T04:13:44.235Z,93.30
2019-03-06T04:16:12.196Z,93.40
2019-03-06T04:18:40.215Z,93.50
2019-03-06T04:21:08.180Z,93.40
2019-03-06T04:23:36.209Z,93.50
2019-03-06T04:26:04.345Z,93.50
2019-03-06T04:28:32.319Z,93.50
2019-03-06T04:31:00.337Z,93.30
2019-03-06T04:33:28.655Z,93.40
2019-03-06T04:35:56.557Z,93.40
2019-03-06T04:38:24.475Z,93.40
2019-03-06T04:40:53.406Z,93.30
2019-03-06T04:43:21.452Z,93.10
2019-03-06T04:45:49.377Z,93.00
2019-03-06T04:48:17.459Z,93.30
2019-03-06T04:50:45.378Z,93.40
2019-03-06T04:53:13.382Z,93.60
2019-03-06T04:55:41.363Z,93.70
2019-03-06T04:58:09.404Z,94.00
2019-03-06T05:00:37.629Z,94.30
2019-03-06T05:03:05.611Z,94.20
2019-03-06T05:05:33.577Z,94.00
2019-03-06T05:08:01.547Z,94.20
2019-03-06T05:10:29.612Z,94.30
2019-03-06T05:12:57.550Z,94.50
2019-03-06T05:15:25.543Z,94.90
2019-03-06T05:17:59.117Z,95.00
2019-03-06T05:20:27.128Z,95.10
2019-03-06T05:22:55.119Z,95.10
2019-03-06T05:25:23.461Z,95.20
2019-03-06T05:27:51.683Z,95.50
2019-03-06T05:30:21.701Z,95.70
2019-03-06T05:32:49.911Z,95.70
2019-03-06T05:36:11.843Z,95.50
2019-03-06T05:39:09.798Z,95.70
2019-03-06T05:41:37.840Z,95.70
2019-03-06T05:44:06.060Z,95.90
2019-03-06T05:46:34.109Z,95.90
2019-03-06T05:49:02.097Z,95.60
2019-03-06T05:51:30.159Z,95.80
2019-03-06T05:53:58.201Z,95.70
2019-03-06T05:56:26.388Z,95.70
2019-03-06T05:58:54.379Z,95.80
2019-03-06T06:01:22.333Z,96.20
2019-03-06T06:03:50.716Z,96.00
2019-03-06T06:06:18.885Z,96.10
2019-03-06T06:08:46.860Z,96.00
2019-03-06T06:11:14.752Z,96.00
2019-03-06T06:13:42.811Z,95.90
2019-03-06T06:16:10.987Z,95.90
2019-03-06T06:18:39.137Z,95.90
2019-03-06T06:21:41.643Z,96.00
2019-03-06T06:24:13.175Z,95.80
2019-03-06T06:26:41.233Z,96.00
2019-03-06T06:29:09.210Z,96.20
2019-03-06T06:31:37.594Z,96.30
2019-03-06T06:34:06.623Z,95.90
2019-03-06T06:36:34.658Z,96.00
2019-03-06T06:39:04.153Z,95.90
2019-03-06T06:41:32.312Z,96.00
2019-03-06T06:44:00.306Z,95.50
2019-03-06T06:46:29.610Z,95.60
2019-03-06T06:48:57.874Z,95.30
2019-03-06T06:52:12.637Z,95.20
2019-03-06T06:55:50.956Z,95.40
2019-03-06T06:59:03.769Z,95.20
2019-03-06T07:03:02.401Z,95.40
2019-03-06T07:06:07.843Z,95.30
2019-03-06T07:08:53.245Z,94.90
2019-03-06T07:11:52.521Z,94.50
2019-03-06T07:14:38.546Z,94.40
2019-03-06T07:17:28.641Z,94.20
2019-03-06T07:20:05.078Z,93.30
2019-03-06T07:22:44.523Z,93.60
2019-03-06T07:25:46.633Z,93.50
2019-03-06T07:28:28.990Z,93.10
2019-03-06T07:31:12.656Z,92.10
2019-03-06T07:33:56.105Z,91.80
2019-03-06T07:36:48.146Z,91.80
2019-03-06T07:39:22.539Z,91.00
2019-03-06T07:42:12.740Z,90.50
2019-03-06T07:45:00.072Z,90.30
2019-03-06T07:47:59.607Z,89.10
2019-03-06T07:50:45.106Z,88.30
2019-03-06T07:54:06.028Z,87.30
2019-03-06T07:56:40.144Z,87.40
2019-03-06T07:59:08.101Z,85.80
2019-03-06T08:01:41.750Z,83.70
2019-03-06T08:04:15.006Z,83.50
2019-03-06T08:06:48.018Z,83.70
2019-03-06T08:09:17.792Z,81.60
2019-03-06T08:11:53.563Z,80.30
2019-03-06T08:14:59.279Z,79.20
2019-03-06T08:17:49.681Z,79.40
2019-03-06T08:20:40.189Z,76.80
2019-03-06T08:23:45.669Z,76.90
2019-03-06T08:26:13.827Z,76.30
2019-03-06T08:28:41.921Z,74.40
2019-03-06T08:31:16.411Z,74.70
2019-03-06T08:33:44.426Z,75.00
2019-03-06T08:36:12.366Z,73.20
2019-03-06T08:38:40.338Z,73.60
2019-03-06T08:41:08.465Z,73.70
2019-03-06T08:43:36.645Z,72.10
2019-03-06T08:46:33.139Z,71.50
2019-03-06T08:49:24.479Z,69.50
2019-03-06T08:52:17.821Z,69.70
2019-03-06T08:55:23.353Z,70.20
2019-03-06T08:58:13.944Z,68.40
2019-03-06T09:01:04.357Z,68.50
2019-03-06T09:03:58.270Z,68.40
2019-03-06T09:06:47.039Z,65.70
2019-03-06T09:09:34.738Z,65.50
2019-03-06T09:12:20.505Z,64.40
2019-03-06T09:15:13.865Z,63.60
2019-03-06T09:18:09.268Z,63.00
2019-03-06T09:20:48.535Z,60.40
2019-03-06T09:23:41.922Z,59.60
2019-03-06T09:26:24.811Z,60.50
2019-03-06T09:29:09.338Z,58.00
2019-03-06T09:31:56.982Z,57.90
2019-03-06T09:34:39.316Z,56.80
2019-03-06T09:37:24.113Z,56.40
2019-03-06T09:40:02.385Z,56.00
2019-03-06T09:42:56.159Z,55.70
2019-03-06T09:45:43.831Z,55.20
2019-03-06T09:48:37.065Z,54.00
2019-03-06T09:51:27.421Z,53.30
2019-03-06T09:54:16.223Z,50.40
2019-03-06T09:56:52.433Z,49.80
2019-03-06T09:59:25.385Z,48.50
2019-03-06T10:02:12.968Z,44.60
2019-03-06T10:05:03.236Z,43.10
2019-03-06T10:07:46.386Z,42.10
2019-03-06T10:10:45.784Z,40.50
2019-03-06T10:13:25.139Z,41.10
2019-03-06T10:16:15.580Z,41.90
2019-03-06T10:18:50.175Z,41.50
2019-03-06T10:21:18.179Z,40.80
2019-03-06T10:23:46.309Z,38.80
2019-03-06T10:26:14.438Z,38.60
2019-03-06T10:28:42.681Z,38.30
2019-03-06T10:31:10.956Z,37.80
2019-03-06T10:33:39.021Z,36.50
2019-03-06T10:36:07.491Z,36.60
2019-03-06T10:38:35.521Z,35.30
2019-03-06T10:41:03.844Z,35.70
2019-03-06T10:43:31.850Z,35.20
2019-03-06T10:45:59.939Z,35.00
2019-03-06T10:48:28.277Z,34.30
2019-03-06T10:50:56.388Z,34.30
2019-03-06T10:53:24.366Z,34.30
2019-03-06T10:55:52.723Z,37.00
2019-03-06T10:58:20.798Z,38.50
2019-03-06T11:00:51.234Z,36.40
2019-03-06T11:03:19.417Z,35.80
2019-03-06T11:05:48.411Z,32.80
2019-03-06T11:08:17.725Z,32.00
2019-03-06T11:10:45.850Z,31.80
2019-03-06T11:13:13.794Z,31.50
2019-03-06T11:15:42.277Z,32.00
2019-03-06T11:18:10.823Z,30.30
2019-03-06T11:20:40.744Z,30.80
2019-03-06T11:23:09.866Z,31.50
2019-03-06T11:25:39.487Z,31.50
2019-03-06T11:28:10.415Z,32.20
2019-03-06T11:30:44.268Z,30.80
2019-03-06T11:33:12.562Z,30.00
2019-03-06T11:35:40.961Z,30.10
2019-03-06T11:38:09.588Z,29.70
2019-03-06T11:40:37.746Z,28.90
2019-03-06T11:43:06.929Z,29.10
2019-03-06T11:45:36.948Z,29.10
2019-03-06T11:48:06.617Z,28.80
2019-03-06T11:50:40.940Z,28.70
2019-03-06T11:53:05.118Z,28.80
2019-03-06T11:55:33.606Z,27.80
2019-03-06T11:58:01.709Z,28.10
2019-03-06T12:00:35.178Z,28.10
2019-03-06T12:03:04.341Z,27.20
2019-03-06T12:05:34.528Z,27.40
2019-03-06T12:08:05.607Z,27.20
2019-03-06T12:10:33.653Z,26.90
2019-03-06T12:13:01.710Z,26.40
2019-03-06T12:15:29.760Z,26.50
2019-03-06T12:17:58.000Z,26.70
2019-03-06T12:20:25.951Z,25.90
2019-03-06T12:22:54.100Z,26.10
2019-03-06T12:25:23.492Z,25.90
2019-03-06T12:27:52.369Z,26.10
2019-03-06T12:30:20.533Z,26.70
2019-03-06T12:32:48.567Z,26.70
2019-03-06T12:35:16.941Z,26.90
2019-03-06T12:37:47.228Z,26.80
2019-03-06T12:40:15.613Z,26.70
2019-03-06T12:42:45.566Z,26.90
2019-03-06T12:45:14.744Z,26.90
2019-03-06T12:47:44.820Z,26.50
2019-03-06T12:50:16.666Z,26.20
2019-03-06T12:52:45.948Z,26.40
2019-03-06T12:55:14.152Z,26.60
2019-03-06T12:57:42.157Z,27.20
2019-03-06T13:00:18.497Z,27.40
2019-03-06T13:02:48.081Z,27.40
2019-03-06T13:05:17.289Z,28.30
2019-03-06T13:07:45.372Z,28.30
2019-03-06T13:10:13.593Z,27.80
2019-03-06T13:12:42.124Z,27.90
2019-03-06T13:15:13.507Z,27.70
2019-03-06T13:17:43.788Z,27.60
2019-03-06T13:20:12.520Z,27.60
2019-03-06T13:22:44.052Z,27.60
2019-03-06T13:25:14.170Z,27.70
2019-03-06T13:27:42.439Z,27.40
2019-03-06T13:30:18.767Z,27.60
2019-03-06T13:32:57.158Z,27.70
2019-03-06T13:35:25.881Z,27.90
2019-03-06T13:37:53.967Z,27.80
2019-03-06T13:40:21.895Z,27.90
2019-03-06T13:42:50.951Z,28.00
2019-03-06T13:45:19.467Z,28.20
2019-03-06T13:47:47.654Z,28.20
2019-03-06T13:50:15.797Z,28.50
2019-03-06T13:52:43.799Z,28.60
2019-03-06T13:55:12.293Z,28.70
2019-03-06T13:57:40.420Z,28.20
2019-03-06T14:00:11.803Z,28.30
2019-03-06T14:02:40.084Z,27.80
2019-03-06T14:05:08.559Z,27.50
2019-03-06T14:07:36.739Z,27.60
2019-03-06T14:10:05.431Z,27.40
2019-03-06T14:12:34.576Z,26.80
2019-03-06T14:15:03.124Z,25.80
2019-03-06T14:17:31.538Z,26.40
2019-03-06T14:19:59.518Z,26.10
2019-03-06T14:22:27.547Z,25.50
2019-03-06T14:24:55.766Z,25.90
2019-03-06T14:27:24.708Z,26.40
2019-03-06T14:29:52.762Z,26.70
2019-03-06T14:32:21.215Z,26.70
2019-03-06T14:34:49.464Z,26.00
2019-03-06T14:37:18.294Z,25.50
2019-03-06T14:39:49.305Z,25.40
2019-03-06T14:42:17.418Z,25.50
2019-03-06T14:44:45.691Z,25.60
2019-03-06T14:47:15.009Z,25.20
2019-03-06T14:49:42.953Z,24.40
2019-03-06T14:52:13.863Z,24.70
2019-03-06T14:54:42.397Z,24.00
2019-03-06T14:57:10.758Z,24.40
2019-03-06T14:59:38.687Z,24.10
2019-03-06T15:02:10.486Z,24.10
2019-03-06T15:04:40.414Z,24.40
2019-03-06T15:07:12.669Z,24.80
2019-03-06T15:09:41.813Z,25.00
2019-03-06T15:12:10.070Z,25.30
2019-03-06T15:14:39.192Z,25.60
2019-03-06T15:17:07.433Z,25.80
2019-03-06T15:19:35.588Z,25.50
2019-03-06T15:27:48.755Z,24.80
2019-03-06T15:30:17.706Z,24.20
2019-03-06T15:32:51.722Z,22.70
2019-03-06T15:38:09.736Z,22.90
2019-03-06T15:43:40.759Z,23.00
2019-03-06T15:46:08.938Z,23.00
2019-03-06T15:48:37.960Z,22.00
2019-03-06T15:51:06.490Z,22.40
2019-03-06T15:53:34.801Z,22.50
2019-03-06T15:56:02.781Z,22.30
2019-03-06T15:58:35.598Z,22.50
2019-03-06T16:01:04.549Z,23.10
2019-03-06T16:03:32.889Z,22.80
2019-03-06T16:06:01.201Z,23.20
2019-03-06T16:08:29.823Z,23.30
2019-03-06T16:10:58.009Z,23.40
2019-03-06T16:13:26.246Z,23.60
2019-03-06T16:15:55.272Z,23.70
2019-03-06T16:18:23.610Z,24.00
2019-03-06T16:20:51.725Z,24.00
2019-03-06T16:23:20.329Z,24.00
2019-03-06T16:25:48.366Z,24.20
2019-03-06T16:28:16.703Z,24.30
2019-03-06T16:30:45.259Z,24.50
2019-03-06T16:33:13.462Z,24.60
2019-03-06T16:35:41.717Z,24.90
2019-03-06T16:38:09.862Z,24.90
2019-03-06T16:40:38.150Z,25.30
2019-03-06T16:43:06.917Z,25.30
2019-03-06T16:45:39.473Z,25.50
2019-03-06T16:48:08.100Z,25.80
2019-03-06T16:50:36.362Z,26.30
2019-03-06T16:53:04.962Z,26.50
2019-03-06T16:55:33.226Z,27.20
2019-03-06T16:58:05.897Z,28.30
2019-03-06T17:00:36.747Z,30.10
2019-03-06T17:03:08.699Z,30.00
2019-03-06T17:05:37.362Z,32.40
2019-03-06T17:08:06.237Z,33.00
2019-03-06T17:10:38.231Z,33.80
2019-03-06T17:13:06.766Z,33.90
2019-03-06T17:15:35.097Z,32.90
2019-03-06T17:18:03.699Z,34.30
2019-03-06T17:20:31.976Z,34.00
2019-03-06T17:23:00.221Z,34.30
2019-03-06T17:25:34.854Z,34.00
2019-03-06T17:28:03.169Z,34.30
2019-03-06T17:30:32.368Z,35.00
2019-03-06T17:33:03.178Z,34.80
2019-03-06T17:35:31.924Z,34.80
2019-03-06T17:38:00.495Z,34.60
2019-03-06T17:40:28.905Z,34.90
2019-03-06T17:42:57.605Z,34.20
2019-03-06T17:45:26.099Z,34.90
2019-03-06T17:47:54.264Z,34.70
2019-03-06T17:50:22.950Z,34.90
2019-03-06T17:52:51.383Z,35.30
2019-03-06T17:55:24.423Z,36.30
2019-03-06T17:57:52.622Z,36.20
2019-03-06T18:00:25.731Z,37.60
2019-03-06T18:02:54.171Z,38.70
2019-03-06T18:05:22.766Z,40.00
2019-03-06T18:07:51.315Z,40.90
2019-03-06T18:10:19.696Z,42.50
2019-03-06T18:12:47.858Z,43.50
2019-03-06T18:15:16.163Z,43.40
2019-03-06T18:17:44.649Z,44.80
2019-03-06T18:20:13.790Z,46.90
2019-03-06T18:22:43.035Z,48.40
2019-03-06T18:25:14.019Z,49.80
2019-03-06T18:27:42.219Z,49.80
2019-03-06T18:30:13.565Z,52.50
2019-03-06T18:32:42.117Z,52.70
2019-03-06T18:35:11.958Z,52.50
2019-03-06T18:37:40.106Z,53.70
2019-03-06T18:40:11.246Z,53.00
2019-03-06T18:42:39.845Z,54.30
2019-03-06T18:45:11.367Z,53.90
2019-03-06T18:47:39.998Z,54.50
2019-03-06T18:50:10.681Z,55.50
2019-03-06T18:52:38.891Z,59.40
2019-03-06T18:55:08.345Z,65.30
2019-03-06T18:57:36.988Z,75.20
2019-03-06T19:00:08.575Z,75.20
2019-03-06T19:02:37.401Z,72.30
2019-03-06T19:05:06.323Z,70.70
2019-03-06T19:07:35.873Z,67.40
2019-03-06T19:10:05.800Z,66.10
2019-03-06T19:12:34.461Z,64.70
2019-03-06T19:15:03.678Z,62.70
2019-03-06T19:17:33.928Z,61.10
2019-03-06T19:20:06.818Z,60.10
2019-03-06T19:22:35.811Z,60.40
2019-03-06T19:25:04.778Z,69.10
2019-03-06T19:27:33.687Z,76.80
2019-03-06T19:30:02.223Z,78.40
2019-03-06T19:32:30.831Z,79.10
2019-03-06T19:34:59.819Z,79.80
2019-03-06T19:37:28.328Z,80.10
2019-03-06T19:39:56.800Z,80.60
2019-03-06T19:42:25.195Z,83.50
2019-03-06T19:44:53.658Z,84.00
2019-03-06T19:47:22.307Z,85.40
2019-03-06T19:49:50.596Z,83.20
2019-03-06T19:52:21.402Z,82.60
2019-03-06T19:54:51.347Z,81.60
2019-03-06T19:57:19.651Z,82.60
2019-03-06T19:59:49.305Z,82.50
2019-03-06T20:02:17.823Z,83.80
2019-03-06T20:04:46.090Z,84.30
2019-03-06T20:07:14.327Z,83.30
2019-03-06T20:09:42.740Z,83.70
2019-03-06T20:12:11.369Z,83.20
2019-03-06T20:14:39.760Z,81.60
2019-03-06T20:17:08.168Z,80.40
2019-03-06T20:19:36.605Z,83.30
2019-03-06T20:22:05.333Z,84.40
2019-03-06T20:24:33.709Z,86.30
2019-03-06T20:27:01.991Z,84.60
2019-03-06T20:29:30.194Z,82.70
2019-03-06T20:32:00.337Z,82.90
2019-03-06T20:34:29.660Z,83.90
2019-03-06T20:36:57.867Z,83.70
2019-03-06T20:39:26.929Z,83.40
2019-03-06T20:41:55.195Z,83.30
2019-03-06T20:44:23.364Z,85.70
2019-03-06T20:46:51.452Z,86.30
2019-03-06T20:49:19.637Z,86.10
2019-03-06T20:51:48.115Z,85.20
2019-03-06T20:54:16.237Z,83.80
2019-03-06T20:56:44.357Z,81.40
2019-03-06T20:59:13.811Z,80.40
2019-03-06T21:01:42.030Z,80.90
2019-03-06T21:04:11.278Z,80.80
2019-03-06T21:06:39.655Z,80.00
2019-03-06T21:09:08.434Z,79.80
2019-03-06T21:11:37.942Z,80.30
2019-03-06T21:14:06.372Z,79.10
2019-03-06T21:16:34.491Z,79.60
2019-03-06T21:19:03.914Z,81.10
2019-03-06T21:21:32.257Z,81.70
2019-03-06T21:24:00.771Z,81.80
2019-03-06T21:26:28.991Z,81.60
2019-03-06T21:28:57.447Z,81.80
2019-03-06T21:31:25.903Z,83.20
2019-03-06T21:33:54.012Z,84.00
2019-03-06T21:36:22.142Z,84.50
2019-03-06T21:38:50.195Z,84.30
2019-03-06T21:41:18.287Z,84.00
2019-03-06T21:43:46.543Z,83.00
2019-03-06T21:46:15.320Z,79.30
2019-03-06T21:48:43.435Z,82.50
2019-03-06T21:51:11.682Z,83.30
2019-03-06T21:53:39.781Z,80.90
2019-03-06T21:56:07.899Z,78.20
2019-03-06T21:58:35.977Z,74.70
2019-03-06T22:01:05.032Z,75.60
2019-03-06T22:03:33.280Z,78.50
2019-03-06T22:06:01.398Z,78.70
2019-03-06T22:08:29.519Z,78.30
2019-03-06T22:10:58.587Z,76.00
2019-03-06T22:13:26.615Z,69.50
2019-03-06T22:15:54.791Z,70.00
2019-03-06T22:18:23.087Z,73.00
2019-03-06T22:20:51.210Z,73.30
2019-03-06T22:23:19.388Z,70.60
2019-03-06T22:25:47.512Z,69.60
2019-03-06T22:28:15.802Z,66.00
2019-03-06T22:30:43.858Z,67.00
2019-03-06T22:33:11.867Z,64.20
2019-03-06T22:35:40.179Z,58.90
2019-03-06T22:38:08.172Z,63.80
2019-03-06T22:40:36.188Z,61.60
2019-03-06T22:43:04.546Z,62.70
2019-03-06T22:45:33.338Z,64.60
2019-03-06T22:48:01.376Z,63.80
2019-03-06T22:50:29.565Z,62.80
2019-03-06T22:52:57.700Z,66.00
2019-03-06T22:55:25.607Z,65.20
2019-03-06T22:57:53.577Z,64.60
2019-03-06T23:00:43.431Z,63.80
2019-03-06T23:03:14.124Z,73.50
2019-03-06T23:05:42.331Z,78.10
2019-03-06T23:08:10.851Z,84.00
2019-03-06T23:10:38.802Z,83.10
2019-03-06T23:13:06.765Z,82.90
2019-03-06T23:15:34.766Z,86.40
2019-03-06T23:18:02.794Z,87.70
2019-03-06T23:20:30.784Z,88.40
2019-03-06T23:22:58.809Z,87.20
2019-03-06T23:25:26.708Z,84.20
2019-03-06T23:27:54.676Z,84.90
2019-03-06T23:30:22.667Z,87.00
2019-03-06T23:32:50.829Z,87.60
2019-03-06T23:35:19.029Z,87.60
2019-03-06T23:37:47.362Z,88.10
2019-03-06T23:40:15.305Z,88.90
2019-03-06T23:42:44.028Z,88.50
2019-03-06T23:45:12.066Z,90.70
2019-03-06T23:47:40.271Z,91.00
2019-03-06T23:50:08.459Z,91.50
2019-03-06T23:52:57.206Z,91.60
2019-03-06T23:55:27.167Z,92.40
2019-03-06T23:57:55.345Z,91.90
